createdAt,value
2017-10-09T00:00:40.346Z,100543.31
2017-10-09T00:01:46.096Z,100546.05
2017-10-09T00:02:51.841Z,100540.48
2017-10-09T00:03:57.592Z,100541.55
2017-10-09T00:05:03.332Z,100541.66
2017-10-09T00:06:09.116Z,100546.27
2017-10-09T00:07:15.620Z,100547.23
2017-10-09T00:08:21.380Z,100546.55
2017-10-09T00:09:26.909Z,100543.61
2017-10-09T00:10:32.529Z,100546.20
2017-10-09T00:11:38.313Z,100547.44
2017-10-09T00:12:43.869Z,100548.65
2017-10-09T00:13:49.614Z,100543.75
2017-10-09T00:14:55.946Z,100545.91
2017-10-09T00:16:01.490Z,100548.75
2017-10-09T00:17:07.060Z,100544.71
2017-10-09T00:18:13.387Z,100552.30
2017-10-09T00:19:18.948Z,100552.08
2017-10-09T00:20:25.260Z,100547.46
2017-10-09T00:21:30.998Z,100546.08
2017-10-09T00:22:36.795Z,100544.80
2017-10-09T00:23:43.114Z,100542.69
2017-10-09T00:24:48.737Z,100544.60
2017-10-09T00:25:54.275Z,100545.63
2017-10-09T00:27:00.640Z,100545.48
2017-10-09T00:28:06.236Z,100546.05
2017-10-09T00:29:11.794Z,100547.50
2017-10-09T00:30:17.349Z,100543.00
2017-10-09T00:31:23.677Z,100549.57
2017-10-09T00:32:29.226Z,100549.23
2017-10-09T00:33:35.581Z,100547.54
2017-10-09T00:34:42.088Z,100550.02
2017-10-09T00:35:47.832Z,100555.94
2017-10-09T00:36:53.598Z,100550.92
2017-10-09T00:37:59.361Z,100550.81
2017-10-09T00:39:04.005Z,100545.34
2017-10-09T00:40:09.753Z,100547.47
2017-10-09T00:41:15.493Z,100544.38
2017-10-09T00:42:21.227Z,100547.96
2017-10-09T00:43:26.967Z,100545.23
2017-10-09T00:44:32.732Z,100547.67
2017-10-09T00:45:38.472Z,100549.72
2017-10-09T00:46:44.035Z,100547.44
2017-10-09T00:47:49.777Z,100551.58
2017-10-09T00:48:55.323Z,100545.04
2017-10-09T00:50:00.907Z,100545.36
2017-10-09T00:51:05.991Z,100543.62
2017-10-09T00:52:11.551Z,100541.87
2017-10-09T00:53:18.056Z,100542.97
2017-10-09T00:54:23.881Z,100550.55
2017-10-09T00:55:28.951Z,100551.88
2017-10-09T00:56:34.482Z,100550.33
2017-10-09T00:57:40.222Z,100551.27
2017-10-09T00:58:45.972Z,100547.05
2017-10-09T00:59:51.711Z,100543.83
2017-10-09T01:00:57.482Z,100546.67
2017-10-09T01:02:03.979Z,100547.31
2017-10-09T01:03:09.721Z,100545.13
2017-10-09T01:04:15.534Z,100543.75
2017-10-09T01:05:22.039Z,100540.62
2017-10-09T01:06:27.804Z,100538.33
2017-10-09T01:07:33.600Z,100535.28
2017-10-09T01:08:39.339Z,100539.00
2017-10-09T01:09:45.079Z,100543.72
2017-10-09T01:10:50.829Z,100543.69
2017-10-09T01:11:56.857Z,100538.55
2017-10-09T01:13:02.607Z,100540.42
2017-10-09T01:14:08.350Z,100534.37
2017-10-09T01:15:14.092Z,100541.92
2017-10-09T01:16:19.835Z,100536.25
2017-10-09T01:17:25.596Z,100535.97
2017-10-09T01:18:31.332Z,100534.48
2017-10-09T01:19:36.732Z,100539.62
2017-10-09T01:20:41.776Z,100538.95
2017-10-09T01:21:47.188Z,100544.11
2017-10-09T01:22:53.363Z,100536.60
2017-10-09T01:23:59.128Z,100541.06
2017-10-09T01:25:04.868Z,100542.59
2017-10-09T01:26:10.609Z,100539.11
2017-10-09T01:27:16.165Z,100534.11
2017-10-09T01:28:21.931Z,100534.17
2017-10-09T01:29:28.428Z,100537.75
2017-10-09T01:30:34.164Z,100534.48
2017-10-09T01:31:39.917Z,100530.73
2017-10-09T01:32:45.672Z,100525.16
2017-10-09T01:33:51.452Z,100526.44
2017-10-09T01:34:57.967Z,100522.87
2017-10-09T01:36:03.700Z,100526.44
2017-10-09T01:37:09.436Z,100525.70
2017-10-09T01:38:15.175Z,100523.14
2017-10-09T01:39:20.953Z,100525.70
2017-10-09T01:40:26.704Z,100522.09
2017-10-09T01:41:33.212Z,100524.17
2017-10-09T01:42:38.265Z,100522.80
2017-10-09T01:43:44.003Z,100519.03
2017-10-09T01:44:49.774Z,100518.09
2017-10-09T01:45:55.531Z,100524.84
2017-10-09T01:47:01.515Z,100521.62
2017-10-09T01:48:06.997Z,100516.84
2017-10-09T01:49:12.744Z,100520.05
2017-10-09T01:50:18.495Z,100525.30
2017-10-09T01:51:25.012Z,100518.57
2017-10-09T01:52:30.755Z,100520.05
2017-10-09T01:53:36.491Z,100519.27
2017-10-09T01:54:42.227Z,100520.69
2017-10-09T01:55:48.002Z,100521.89
2017-10-09T01:56:53.750Z,100521.31
2017-10-09T01:58:00.255Z,100523.82
2017-10-09T01:59:05.993Z,100525.23
2017-10-09T02:00:11.533Z,100523.22
2017-10-09T02:01:17.405Z,100524.87
2017-10-09T02:02:23.132Z,100525.73
2017-10-09T02:03:28.872Z,100524.03
2017-10-09T02:04:34.614Z,100527.95
2017-10-09T02:05:40.348Z,100528.74
2017-10-09T02:06:46.210Z,100525.23
2017-10-09T02:07:52.306Z,100536.50
2017-10-09T02:08:58.799Z,100534.77
2017-10-09T02:10:04.543Z,100536.42
2017-10-09T02:11:10.279Z,100527.25
2017-10-09T02:12:16.080Z,100527.88
2017-10-09T02:13:22.597Z,100528.77
2017-10-09T02:14:28.393Z,100536.89
2017-10-09T02:15:34.891Z,100530.28
2017-10-09T02:16:40.629Z,100535.30
2017-10-09T02:17:46.383Z,100532.38
2017-10-09T02:18:51.920Z,100536.09
2017-10-09T02:19:57.656Z,100541.61
2017-10-09T02:21:03.405Z,100539.97
2017-10-09T02:22:09.153Z,100538.95
2017-10-09T02:23:14.904Z,100533.91
2017-10-09T02:24:20.465Z,100539.78
2017-10-09T02:25:26.781Z,100538.25
2017-10-09T02:26:32.332Z,100539.09
2017-10-09T02:27:38.064Z,100532.48
2017-10-09T02:28:45.338Z,100537.27
2017-10-09T02:29:51.070Z,100539.56
2017-10-09T02:30:56.814Z,100541.39
2017-10-09T02:32:02.780Z,100544.64
2017-10-09T02:33:08.524Z,100537.94
2017-10-09T02:34:15.059Z,100539.51
2017-10-09T02:35:20.796Z,100537.77
2017-10-09T02:36:26.528Z,100540.16
2017-10-09T02:37:32.260Z,100540.34
2017-10-09T02:38:38.019Z,100543.38
2017-10-09T02:39:43.774Z,100538.23
2017-10-09T02:40:49.549Z,100539.26
2017-10-09T02:41:56.069Z,100536.70
2017-10-09T02:43:01.806Z,100544.20
2017-10-09T02:44:07.544Z,100538.47
2017-10-09T02:45:13.309Z,100542.30
2017-10-09T02:46:19.831Z,100543.72
2017-10-09T02:47:25.567Z,100540.34
2017-10-09T02:48:31.319Z,100535.50
2017-10-09T02:49:37.085Z,100541.20
2017-10-09T02:50:42.862Z,100543.75
2017-10-09T02:51:48.716Z,100536.91
2017-10-09T02:52:54.452Z,100543.13
2017-10-09T02:54:00.192Z,100540.93
2017-10-09T02:55:05.935Z,100538.55
2017-10-09T02:56:11.753Z,100539.86
2017-10-09T02:57:18.086Z,100539.86
2017-10-09T02:58:23.824Z,100539.46
2017-10-09T02:59:29.563Z,100542.08
2017-10-09T03:00:35.354Z,100544.80
2017-10-09T03:01:41.132Z,100543.72
2017-10-09T03:02:46.866Z,100543.16
2017-10-09T03:03:52.600Z,100549.80
2017-10-09T03:04:58.336Z,100544.63
2017-10-09T03:06:04.080Z,100550.39
2017-10-09T03:07:09.852Z,100544.23
2017-10-09T03:08:15.588Z,100548.06
2017-10-09T03:09:21.330Z,100549.50
2017-10-09T03:10:27.324Z,100546.36
2017-10-09T03:11:33.866Z,100550.45
2017-10-09T03:12:40.387Z,100552.55
2017-10-09T03:13:46.140Z,100549.50
2017-10-09T03:14:51.716Z,100547.93
2017-10-09T03:15:58.232Z,100546.53
2017-10-09T03:17:03.785Z,100547.90
2017-10-09T03:18:09.568Z,100543.88
2017-10-09T03:19:15.425Z,100549.14
2017-10-09T03:20:20.976Z,100547.38
2017-10-09T03:21:26.522Z,100547.90
2017-10-09T03:22:37.571Z,100544.59
2017-10-09T03:23:43.156Z,100542.63
2017-10-09T03:24:49.005Z,100547.77
2017-10-09T03:26:00.822Z,100547.73
2017-10-09T03:27:06.688Z,100544.89
2017-10-09T03:28:15.696Z,100548.81
2017-10-09T03:29:26.134Z,100544.52
2017-10-09T03:30:31.689Z,100544.52
2017-10-09T03:31:37.241Z,100549.69
2017-10-09T03:32:42.588Z,100544.46
2017-10-09T03:33:49.152Z,100549.27
2017-10-09T03:34:54.828Z,100545.34
2017-10-09T03:36:01.314Z,100548.29
2017-10-09T03:37:06.956Z,100547.08
2017-10-09T03:38:12.589Z,100546.81
2017-10-09T03:39:18.240Z,100544.89
2017-10-09T03:40:24.005Z,100545.34
2017-10-09T03:41:29.582Z,100545.67
2017-10-09T03:42:35.894Z,100544.98
2017-10-09T03:43:41.735Z,100543.97
2017-10-09T03:44:47.085Z,100550.31
2017-10-09T03:45:52.655Z,100543.54
2017-10-09T03:46:58.398Z,100547.70
2017-10-09T03:48:04.136Z,100545.77
2017-10-09T03:49:09.879Z,100549.72
2017-10-09T03:50:15.618Z,100546.31
2017-10-09T03:51:22.227Z,100542.72
2017-10-09T03:52:28.021Z,100548.87
2017-10-09T03:53:34.336Z,100544.59
2017-10-09T03:54:40.064Z,100546.25
2017-10-09T03:55:45.457Z,100542.39
2017-10-09T03:56:51.221Z,100544.48
2017-10-09T03:57:56.961Z,100539.68
2017-10-09T03:59:02.696Z,100541.77
2017-10-09T04:00:08.447Z,100552.50
2017-10-09T04:01:14.176Z,100550.05
2017-10-09T04:02:19.944Z,100551.12
2017-10-09T04:03:25.681Z,100551.48
2017-10-09T04:04:31.426Z,100557.89
2017-10-09T04:05:37.170Z,100546.58
2017-10-09T04:06:42.964Z,100549.69
2017-10-09T04:07:48.716Z,100549.88
2017-10-09T04:08:54.548Z,100557.14
2017-10-09T04:10:01.044Z,100548.51
2017-10-09T04:11:06.783Z,100555.73
2017-10-09T04:12:12.515Z,100551.91
2017-10-09T04:13:18.280Z,100549.20
2017-10-09T04:14:24.020Z,100558.72
2017-10-09T04:15:29.748Z,100559.56
2017-10-09T04:16:35.484Z,100551.91
2017-10-09T04:17:41.237Z,100555.41
2017-10-09T04:18:47.012Z,100556.80
2017-10-09T04:19:52.740Z,100557.75
2017-10-09T04:20:58.495Z,100559.69
2017-10-09T04:22:04.233Z,100563.80
2017-10-09T04:23:10.733Z,100557.33
2017-10-09T04:24:16.517Z,100559.84
2017-10-09T04:25:22.303Z,100564.10
2017-10-09T04:26:27.656Z,100563.88
2017-10-09T04:27:33.404Z,100566.47
2017-10-09T04:28:39.018Z,100562.25
2017-10-09T04:29:44.592Z,100558.59
2017-10-09T04:30:50.128Z,100560.23
2017-10-09T04:31:55.733Z,100564.32
2017-10-09T04:33:01.641Z,100562.48
2017-10-09T04:34:07.184Z,100562.69
2017-10-09T04:35:13.737Z,100564.32
2017-10-09T04:36:19.481Z,100564.61
2017-10-09T04:37:26.100Z,100564.42
2017-10-09T04:38:31.848Z,100564.81
2017-10-09T04:39:37.641Z,100564.20
2017-10-09T04:40:43.472Z,100560.53
2017-10-09T04:41:49.985Z,100561.12
2017-10-09T04:42:55.712Z,100561.15
2017-10-09T04:44:01.452Z,100555.66
2017-10-09T04:45:07.193Z,100556.11
2017-10-09T04:46:12.960Z,100567.27
2017-10-09T04:47:18.703Z,100563.61
2017-10-09T04:48:24.434Z,100559.91
2017-10-09T04:49:30.001Z,100564.27
2017-10-09T04:50:35.740Z,100562.66
2017-10-09T04:51:41.512Z,100558.73
2017-10-09T04:52:47.827Z,100561.52
2017-10-09T04:53:53.572Z,100560.56
2017-10-09T04:55:00.833Z,100555.30
2017-10-09T04:56:06.575Z,100554.45
2017-10-09T04:57:12.376Z,100558.83
2017-10-09T04:58:18.127Z,100555.66
2017-10-09T04:59:23.873Z,100558.96
2017-10-09T05:00:29.621Z,100561.90
2017-10-09T05:01:35.359Z,100554.85
2017-10-09T05:02:41.123Z,100554.69
2017-10-09T05:03:46.876Z,100554.69
2017-10-09T05:04:52.971Z,100559.20
2017-10-09T05:05:58.369Z,100552.72
2017-10-09T05:07:04.109Z,100554.32
2017-10-09T05:08:09.880Z,100554.32
2017-10-09T05:09:16.380Z,100550.36
2017-10-09T05:10:22.130Z,100556.31
2017-10-09T05:11:27.577Z,100560.05
2017-10-09T05:12:33.320Z,100565.44
2017-10-09T05:13:39.105Z,100555.57
2017-10-09T05:14:44.845Z,100559.09
2017-10-09T05:15:50.624Z,100554.16
2017-10-09T05:16:56.191Z,100555.67
2017-10-09T05:18:02.052Z,100560.61
2017-10-09T05:19:08.630Z,100561.97
2017-10-09T05:20:15.128Z,100555.06
2017-10-09T05:21:20.889Z,100559.88
2017-10-09T05:22:26.454Z,100560.10
2017-10-09T05:23:32.200Z,100559.83
2017-10-09T05:24:38.726Z,100559.84
2017-10-09T05:25:44.469Z,100556.17
2017-10-09T05:26:50.216Z,100555.47
2017-10-09T05:27:55.948Z,100555.37
2017-10-09T05:29:01.695Z,100553.73
2017-10-09T05:30:08.219Z,100556.88
2017-10-09T05:31:13.971Z,100555.42
2017-10-09T05:32:19.718Z,100558.77
2017-10-09T05:33:25.464Z,100557.72
2017-10-09T05:34:31.205Z,100556.95
2017-10-09T05:35:36.962Z,100555.11
2017-10-09T05:36:42.707Z,100555.54
2017-10-09T05:37:49.220Z,100561.73
2017-10-09T05:38:55.146Z,100566.64
2017-10-09T05:40:00.987Z,100561.44
2017-10-09T05:41:06.752Z,100564.36
2017-10-09T05:42:12.495Z,100564.59
2017-10-09T05:43:18.252Z,100566.92
2017-10-09T05:44:23.983Z,100569.83
2017-10-09T05:45:29.737Z,100567.97
2017-10-09T05:46:35.513Z,100573.20
2017-10-09T05:47:42.027Z,100567.44
2017-10-09T05:48:47.764Z,100571.53
2017-10-09T05:49:53.513Z,100569.95
2017-10-09T05:50:59.255Z,100573.66
2017-10-09T05:52:05.032Z,100571.16
2017-10-09T05:53:10.397Z,100567.53
2017-10-09T05:54:16.147Z,100566.73
2017-10-09T05:55:21.700Z,100565.64
2017-10-09T05:56:27.441Z,100570.13
2017-10-09T05:57:33.208Z,100571.28
2017-10-09T05:58:38.953Z,100564.77
2017-10-09T05:59:44.701Z,100572.11
2017-10-09T06:00:50.450Z,100567.27
2017-10-09T06:01:56.332Z,100571.63
2017-10-09T06:03:02.108Z,100573.19
2017-10-09T06:04:07.853Z,100574.22
2017-10-09T06:05:13.592Z,100562.98
2017-10-09T06:06:19.341Z,100559.40
2017-10-09T06:07:25.072Z,100569.33
2017-10-09T06:08:30.840Z,100566.73
2017-10-09T06:09:36.583Z,100564.68
2017-10-09T06:10:43.087Z,100568.44
2017-10-09T06:11:48.924Z,100565.89
2017-10-09T06:12:54.668Z,100569.86
2017-10-09T06:14:00.449Z,100563.19
2017-10-09T06:15:06.191Z,100562.58
2017-10-09T06:16:11.940Z,100563.21
2017-10-09T06:17:17.672Z,100556.72
2017-10-09T06:18:23.424Z,100560.97
2017-10-09T06:19:28.999Z,100555.28
2017-10-09T06:20:34.754Z,100554.23
2017-10-09T06:21:40.501Z,100559.73
2017-10-09T06:22:46.259Z,100553.56
2017-10-09T06:23:52.007Z,100547.83
2017-10-09T06:24:57.580Z,100558.94
2017-10-09T06:26:04.100Z,100559.42
2017-10-09T06:27:09.836Z,100564.03
2017-10-09T06:28:15.576Z,100564.14
2017-10-09T06:29:21.316Z,100557.95
2017-10-09T06:30:27.134Z,100560.78
2017-10-09T06:31:32.867Z,100563.11
2017-10-09T06:32:38.604Z,100563.00
2017-10-09T06:33:44.348Z,100563.65
2017-10-09T06:34:50.094Z,100557.39
2017-10-09T06:35:55.859Z,100564.28
2017-10-09T06:37:01.629Z,100555.51
2017-10-09T06:38:08.137Z,100563.98
2017-10-09T06:39:13.673Z,100560.67
2017-10-09T06:40:19.411Z,100563.89
2017-10-09T06:41:25.077Z,100559.17
2017-10-09T06:42:30.823Z,100558.42
2017-10-09T06:43:36.568Z,100558.55
2017-10-09T06:44:42.307Z,100559.32
2017-10-09T06:45:48.050Z,100559.58
2017-10-09T06:46:53.836Z,100561.58
2017-10-09T06:48:00.344Z,100561.80
2017-10-09T06:49:06.088Z,100558.45
2017-10-09T06:50:11.895Z,100567.84
2017-10-09T06:51:17.643Z,100560.20
2017-10-09T06:52:23.412Z,100563.95
2017-10-09T06:53:29.222Z,100569.13
2017-10-09T06:54:34.960Z,100564.27
2017-10-09T06:55:40.807Z,100568.54
2017-10-09T06:56:46.572Z,100566.70
2017-10-09T06:57:52.438Z,100568.80
2017-10-09T06:58:58.176Z,100565.41
2017-10-09T07:00:03.976Z,100574.80
2017-10-09T07:01:09.792Z,100568.47
2017-10-09T07:02:15.531Z,100572.06
2017-10-09T07:03:22.126Z,100572.64
2017-10-09T07:04:27.879Z,100574.02
2017-10-09T07:05:33.638Z,100569.57
2017-10-09T07:06:39.189Z,100570.05
2017-10-09T07:07:44.949Z,100565.53
2017-10-09T07:08:50.751Z,100566.06
2017-10-09T07:09:56.501Z,100565.81
2017-10-09T07:11:02.265Z,100568.73
2017-10-09T07:12:08.004Z,100568.19
2017-10-09T07:13:13.764Z,100568.44
2017-10-09T07:14:19.535Z,100566.97
2017-10-09T07:15:25.300Z,100565.30
2017-10-09T07:16:31.055Z,100559.39
2017-10-09T07:17:36.797Z,100562.62
2017-10-09T07:18:42.554Z,100562.06
2017-10-09T07:19:48.362Z,100563.72
2017-10-09T07:20:54.117Z,100562.13
2017-10-09T07:21:59.691Z,100568.45
2017-10-09T07:23:06.200Z,100569.40
2017-10-09T07:24:11.767Z,100563.28
2017-10-09T07:25:17.368Z,100569.83
2017-10-09T07:26:23.125Z,100567.88
2017-10-09T07:27:28.706Z,100566.90
2017-10-09T07:28:34.722Z,100564.04
2017-10-09T07:29:40.471Z,100568.11
2017-10-09T07:30:46.272Z,100567.62
2017-10-09T07:31:52.021Z,100567.94
2017-10-09T07:32:57.772Z,100569.59
2017-10-09T07:34:03.528Z,100570.58
2017-10-09T07:35:09.275Z,100568.20
2017-10-09T07:36:15.093Z,100572.23
2017-10-09T07:37:20.836Z,100575.10
2017-10-09T07:38:26.584Z,100566.34
2017-10-09T07:39:32.355Z,100570.86
2017-10-09T07:40:38.102Z,100571.48
2017-10-09T07:41:43.872Z,100579.41
2017-10-09T07:42:49.626Z,100575.78
2017-10-09T07:43:56.137Z,100577.17
2017-10-09T07:45:01.895Z,100570.74
2017-10-09T07:46:08.467Z,100570.75
2017-10-09T07:47:15.005Z,100573.20
2017-10-09T07:48:20.559Z,100571.76
2017-10-09T07:49:27.087Z,100574.89
2017-10-09T07:50:33.092Z,100574.12
2017-10-09T07:51:38.845Z,100571.45
2017-10-09T07:52:44.419Z,100573.06
2017-10-09T07:53:50.184Z,100566.44
2017-10-09T07:54:56.700Z,100568.48
2017-10-09T07:56:02.452Z,100570.55
2017-10-09T07:57:07.304Z,100561.55
2017-10-09T07:58:13.843Z,100561.56
2017-10-09T07:59:21.144Z,100556.00
2017-10-09T08:00:27.652Z,100560.05
2017-10-09T08:01:33.412Z,100561.17
2017-10-09T08:02:39.160Z,100561.39
2017-10-09T08:03:44.944Z,100562.81
2017-10-09T08:04:51.454Z,100561.72
2017-10-09T08:05:57.200Z,100565.67
2017-10-09T08:07:02.949Z,100570.25
2017-10-09T08:08:08.728Z,100564.33
2017-10-09T08:09:15.276Z,100561.25
2017-10-09T08:10:21.795Z,100565.19
2017-10-09T08:11:27.200Z,100564.30
2017-10-09T08:12:32.941Z,100568.49
2017-10-09T08:13:38.691Z,100560.44
2017-10-09T08:14:44.460Z,100565.35
2017-10-09T08:15:50.220Z,100560.77
2017-10-09T08:16:55.972Z,100562.44
2017-10-09T08:18:02.484Z,100562.31
2017-10-09T08:19:08.228Z,100561.91
2017-10-09T08:20:14.019Z,100568.65
2017-10-09T08:21:20.634Z,100568.14
2017-10-09T08:22:26.433Z,100562.42
2017-10-09T08:23:32.960Z,100562.13
2017-10-09T08:24:38.718Z,100566.86
2017-10-09T08:25:45.297Z,100562.80
2017-10-09T08:26:51.096Z,100564.72
2017-10-09T08:27:56.852Z,100560.86
2017-10-09T08:29:03.418Z,100561.00
2017-10-09T08:30:09.939Z,100549.22
2017-10-09T08:31:15.716Z,100553.00
2017-10-09T08:32:22.238Z,100549.42
2017-10-09T08:33:27.994Z,100549.88
2017-10-09T08:34:33.762Z,100540.58
2017-10-09T08:35:39.503Z,100550.07
2017-10-09T08:36:46.060Z,100548.10
2017-10-09T08:37:52.580Z,100556.69
2017-10-09T08:38:58.137Z,100544.80
2017-10-09T08:40:03.918Z,100541.66
2017-10-09T08:41:09.668Z,100553.45
2017-10-09T08:42:15.514Z,100546.41
2017-10-09T08:43:21.257Z,100548.47
2017-10-09T08:44:27.003Z,100543.68
2017-10-09T08:45:32.755Z,100546.64
2017-10-09T08:46:38.500Z,100542.73
2017-10-09T08:47:44.287Z,100540.17
2017-10-09T08:48:50.036Z,100549.02
2017-10-09T08:49:56.364Z,100546.86
2017-10-09T08:51:03.618Z,100544.41
2017-10-09T08:52:09.377Z,100546.07
2017-10-09T08:53:15.279Z,100544.67
2017-10-09T08:54:21.029Z,100548.34
2017-10-09T08:55:26.601Z,100546.58
2017-10-09T08:56:32.393Z,100543.08
2017-10-09T08:57:38.729Z,100559.34
2017-10-09T08:58:44.576Z,100551.95
2017-10-09T08:59:50.905Z,100553.27
2017-10-09T09:00:56.466Z,100556.32
2017-10-09T09:02:02.976Z,100546.17
2017-10-09T09:03:08.784Z,100548.06
2017-10-09T09:04:14.561Z,100545.31
2017-10-09T09:05:20.123Z,100538.41
2017-10-09T09:06:25.686Z,100545.16
2017-10-09T09:07:32.022Z,100550.98
2017-10-09T09:08:37.781Z,100551.09
2017-10-09T09:09:44.321Z,100553.52
2017-10-09T09:10:50.833Z,100554.42
2017-10-09T09:11:56.585Z,100551.80
2017-10-09T09:13:02.404Z,100555.20
2017-10-09T09:14:08.156Z,100555.41
2017-10-09T09:15:13.932Z,100549.86
2017-10-09T09:16:20.052Z,100549.02
2017-10-09T09:17:25.787Z,100556.29
2017-10-09T09:18:31.365Z,100550.32
2017-10-09T09:19:37.121Z,100553.84
2017-10-09T09:20:44.400Z,100552.26
2017-10-09T09:21:50.155Z,100558.53
2017-10-09T09:22:56.687Z,100557.17
2017-10-09T09:24:02.424Z,100552.99
2017-10-09T09:25:07.990Z,100550.32
2017-10-09T09:26:14.524Z,100554.75
2017-10-09T09:27:20.298Z,100549.63
2017-10-09T09:28:26.877Z,100548.36
2017-10-09T09:29:32.627Z,100552.95
2017-10-09T09:30:38.383Z,100548.84
2017-10-09T09:31:44.171Z,100548.59
2017-10-09T09:32:49.942Z,100553.80
2017-10-09T09:33:55.714Z,100541.64
2017-10-09T09:35:01.597Z,100542.48
2017-10-09T09:36:08.193Z,100544.84
2017-10-09T09:37:13.971Z,100543.61
2017-10-09T09:38:19.737Z,100537.47
2017-10-09T09:39:25.485Z,100536.23
2017-10-09T09:40:31.827Z,100539.72
2017-10-09T09:41:37.567Z,100536.80
2017-10-09T09:42:43.348Z,100543.39
2017-10-09T09:43:49.088Z,100534.05
2017-10-09T09:44:54.841Z,100540.14
2017-10-09T09:46:00.579Z,100539.88
2017-10-09T09:47:06.334Z,100538.39
2017-10-09T09:48:11.920Z,100538.89
2017-10-09T09:49:17.668Z,100539.16
2017-10-09T09:50:24.198Z,100536.16
2017-10-09T09:51:29.947Z,100537.17
2017-10-09T09:52:35.736Z,100539.06
2017-10-09T09:53:41.657Z,100537.91
2017-10-09T09:54:48.180Z,100541.95
2017-10-09T09:55:53.924Z,100541.61
2017-10-09T09:56:59.496Z,100537.77
2017-10-09T09:58:06.024Z,100537.93
2017-10-09T09:59:11.813Z,100543.88
2017-10-09T10:00:18.381Z,100532.85
2017-10-09T10:01:24.707Z,100546.78
2017-10-09T10:02:30.481Z,100536.77
2017-10-09T10:03:36.256Z,100540.42
2017-10-09T10:04:42.055Z,100536.47
2017-10-09T10:05:48.565Z,100536.23
2017-10-09T10:06:54.362Z,100536.95
2017-10-09T10:08:00.888Z,100539.01
2017-10-09T10:09:06.666Z,100544.22
2017-10-09T10:10:12.553Z,100541.40
2017-10-09T10:11:18.117Z,100541.79
2017-10-09T10:12:23.863Z,100543.97
2017-10-09T10:13:30.383Z,100543.25
2017-10-09T10:14:36.133Z,100552.16
2017-10-09T10:15:41.903Z,100540.50
2017-10-09T10:16:48.428Z,100546.75
2017-10-09T10:17:53.973Z,100543.58
2017-10-09T10:18:59.724Z,100544.83
2017-10-09T10:20:06.239Z,100546.39
2017-10-09T10:21:12.021Z,100543.34
2017-10-09T10:22:17.766Z,100546.08
2017-10-09T10:23:23.532Z,100548.81
2017-10-09T10:24:30.060Z,100551.33
2017-10-09T10:25:35.822Z,100552.56
2017-10-09T10:26:41.600Z,100550.44
2017-10-09T10:27:47.344Z,100538.81
2017-10-09T10:28:53.092Z,100554.72
2017-10-09T10:29:58.641Z,100545.44
2017-10-09T10:31:04.413Z,100549.59
2017-10-09T10:32:10.193Z,100547.30
2017-10-09T10:33:15.957Z,100549.53
2017-10-09T10:34:21.724Z,100541.70
2017-10-09T10:35:27.477Z,100546.58
2017-10-09T10:36:33.232Z,100542.77
2017-10-09T10:37:39.007Z,100542.34
2017-10-09T10:38:44.743Z,100541.06
2017-10-09T10:39:50.501Z,100542.23
2017-10-09T10:40:56.278Z,100539.28
2017-10-09T10:42:02.024Z,100543.23
2017-10-09T10:43:08.370Z,100536.25
2017-10-09T10:44:14.130Z,100533.95
2017-10-09T10:45:19.875Z,100537.86
2017-10-09T10:46:25.630Z,100531.98
2017-10-09T10:47:32.141Z,100530.30
2017-10-09T10:48:37.955Z,100525.58
2017-10-09T10:49:43.716Z,100533.44
2017-10-09T10:50:49.476Z,100525.08
2017-10-09T10:51:55.225Z,100527.39
2017-10-09T10:53:00.983Z,100527.39
2017-10-09T10:54:06.591Z,100534.53
2017-10-09T10:55:12.376Z,100530.84
2017-10-09T10:56:18.908Z,100532.68
2017-10-09T10:57:24.678Z,100526.66
2017-10-09T10:58:31.206Z,100534.31
2017-10-09T10:59:36.983Z,100531.02
2017-10-09T11:00:43.164Z,100529.31
2017-10-09T11:01:48.975Z,100530.05
2017-10-09T11:02:55.528Z,100526.15
2017-10-09T11:04:01.276Z,100529.83
2017-10-09T11:05:07.820Z,100529.63
2017-10-09T11:06:13.582Z,100524.45
2017-10-09T11:07:20.108Z,100526.74
2017-10-09T11:08:25.861Z,100521.51
2017-10-09T11:09:31.616Z,100526.09
2017-10-09T11:10:38.161Z,100520.70
2017-10-09T11:11:43.932Z,100529.34
2017-10-09T11:12:50.444Z,100533.82
2017-10-09T11:13:56.213Z,100535.88
2017-10-09T11:15:02.024Z,100530.91
2017-10-09T11:16:07.929Z,100527.34
2017-10-09T11:17:14.485Z,100521.78
2017-10-09T11:18:20.311Z,100522.17
2017-10-09T11:19:26.208Z,100520.54
2017-10-09T11:20:31.968Z,100520.34
2017-10-09T11:21:37.789Z,100525.96
2017-10-09T11:22:43.341Z,100521.60
2017-10-09T11:23:49.085Z,100526.61
2017-10-09T11:24:54.841Z,100521.69
2017-10-09T11:26:00.592Z,100524.75
2017-10-09T11:27:07.145Z,100521.27
2017-10-09T11:28:14.395Z,100518.80
2017-10-09T11:29:20.172Z,100532.14
2017-10-09T11:30:25.926Z,100524.20
2017-10-09T11:31:32.440Z,100510.13
2017-10-09T11:32:38.249Z,100522.72
2017-10-09T11:33:44.056Z,100518.41
2017-10-09T11:34:49.811Z,100519.33
2017-10-09T11:35:56.316Z,100529.00
2017-10-09T11:37:01.881Z,100523.74
2017-10-09T11:38:07.664Z,100518.64
2017-10-09T11:39:14.168Z,100522.80
2017-10-09T11:40:19.927Z,100528.43
2017-10-09T11:41:25.705Z,100534.19
2017-10-09T11:42:31.552Z,100526.61
2017-10-09T11:43:37.112Z,100520.79
2017-10-09T11:44:42.863Z,100523.25
2017-10-09T11:45:48.645Z,100519.88
2017-10-09T11:46:55.167Z,100522.52
2017-10-09T11:48:00.972Z,100524.94
2017-10-09T11:49:06.749Z,100525.45
2017-10-09T11:50:12.500Z,100521.61
2017-10-09T11:51:18.294Z,100528.87
2017-10-09T11:52:25.235Z,100518.47
2017-10-09T11:53:31.006Z,100522.39
2017-10-09T11:54:37.544Z,100525.20
2017-10-09T11:55:44.076Z,100520.32
2017-10-09T11:56:49.820Z,100517.47
2017-10-09T11:57:55.395Z,100521.89
2017-10-09T11:59:01.910Z,100521.40
2017-10-09T12:00:07.692Z,100512.80
2017-10-09T12:01:13.449Z,100511.05
2017-10-09T12:02:19.254Z,100520.78
2017-10-09T12:03:24.997Z,100524.09
2017-10-09T12:04:30.752Z,100519.60
2017-10-09T12:05:37.385Z,100522.11
2017-10-09T12:06:43.131Z,100518.73
2017-10-09T12:07:48.882Z,100516.23
2017-10-09T12:08:54.624Z,100509.91
2017-10-09T12:10:01.896Z,100512.38
2017-10-09T12:11:07.665Z,100516.81
2017-10-09T12:12:14.172Z,100505.83
2017-10-09T12:13:19.923Z,100513.23
2017-10-09T12:14:25.468Z,100506.42
2017-10-09T12:15:31.220Z,100506.58
2017-10-09T12:16:37.016Z,100502.33
2017-10-09T12:17:42.767Z,100502.68
2017-10-09T12:18:48.520Z,100503.07
2017-10-09T12:19:54.327Z,100491.59
2017-10-09T12:21:00.083Z,100502.75
2017-10-09T12:22:05.847Z,100504.43
2017-10-09T12:23:11.416Z,100505.75
2017-10-09T12:24:16.984Z,100501.83
2017-10-09T12:25:22.731Z,100503.42
2017-10-09T12:26:28.470Z,100509.31
2017-10-09T12:27:34.265Z,100499.39
2017-10-09T12:28:40.007Z,100499.58
2017-10-09T12:29:45.755Z,100494.98
2017-10-09T12:30:51.504Z,100490.56
2017-10-09T12:31:58.840Z,100496.22